Time;durP1;ratioP1;P1;durP2;ratioP2;P2;SDS_P1;SDS_P2;PMS_P1;PMS_P2;Temp;Humidity;BMP_temperature;BMP_pressure;BME280_temperature;BME280_humidity;BME280_pressure;Samples;Min_cycle;Max_cycle;Signal;HPM_P1;HPM_P2
2022/04/12 00:01:11;;;;;;;4.00;2.13;;;5.30;99.90;;;;;;5175241;28;20189;-50
2022/04/12 00:03:41;;;;;;;5.37;3.07;;;5.30;99.90;;;;;;5167308;28;20778;-51
2022/04/12 00:06:12;;;;;;;8.73;2.67;;;5.30;99.90;;;;;;5178333;28;20265;-50
2022/04/12 00:08:42;;;;;;;3.40;2.13;;;5.30;99.90;;;;;;5186854;28;20213;-49
2022/04/12 00:11:13;;;;;;;14.97;2.40;;;5.30;99.90;;;;;;5158901;28;20214;-50
2022/04/12 00:13:44;;;;;;;2.50;2.40;;;5.30;99.90;;;;;;5184263;28;20211;-49
2022/04/12 00:16:14;;;;;;;3.33;3.03;;;5.30;99.90;;;;;;5172346;28;20186;-53
2022/04/12 00:19:03;;;;;;;5.83;2.87;;;5.30;99.90;;;;;;5183175;28;20177;-51
2022/04/12 00:21:35;;;;;;;2.80;2.47;;;5.40;99.90;;;;;;5179396;28;20182;-50
2022/04/12 00:24:07;;;;;;;5.03;2.60;;;5.30;99.90;;;;;;5182589;28;20470;-49
2022/04/12 00:26:37;;;;;;;5.10;2.90;;;5.20;99.90;;;;;;5177982;28;20521;-50
2022/04/12 00:29:08;;;;;;;4.17;2.73;;;5.20;99.90;;;;;;5180846;28;20520;-51
2022/04/12 00:31:38;;;;;;;7.37;3.47;;;5.20;99.90;;;;;;5179286;28;20221;-50
2022/04/12 00:34:09;;;;;;;4.73;2.80;;;5.20;99.90;;;;;;5185607;28;20228;-50
2022/04/12 00:36:39;;;;;;;2.77;2.57;;;5.10;99.90;;;;;;5182490;28;20245;-51
2022/04/12 00:39:10;;;;;;;2.73;2.53;;;5.10;99.90;;;;;;5181093;28;20352;-50
2022/04/12 00:41:42;;;;;;;3.53;2.87;;;5.20;99.90;;;;;;5178884;28;20180;-50
2022/04/12 00:44:13;;;;;;;8.20;3.13;;;5.20;99.90;;;;;;5174411;28;20197;-50
2022/04/12 00:46:43;;;;;;;3.90;2.80;;;5.20;99.90;;;;;;5180390;28;20459;-50
2022/04/12 00:49:14;;;;;;;5.97;2.40;;;5.20;99.90;;;;;;5184836;28;20181;-49
2022/04/12 00:51:45;;;;;;;5.03;2.77;;;5.30;99.90;;;;;;5180373;28;20177;-51
2022/04/12 00:54:19;;;;;;;4.83;2.80;;;5.20;99.90;;;;;;5182521;28;20576;-50
2022/04/12 00:56:51;;;;;;;3.90;2.73;;;5.20;99.90;;;;;;5177239;28;20435;-51
2022/04/12 00:59:23;;;;;;;3.90;2.87;;;5.20;99.90;;;;;;5166578;28;20436;-52
2022/04/12 01:01:53;;;;;;;5.47;2.17;;;5.20;99.90;;;;;;5166615;28;20507;-49
2022/04/12 01:04:24;;;;;;;6.83;2.70;;;5.20;99.90;;;;;;5182978;28;20982;-50
2022/04/12 01:06:55;;;;;;;6.33;2.80;;;5.10;99.90;;;;;;5180747;28;20208;-51
2022/04/12 01:09:26;;;;;;;8.20;2.30;;;5.10;99.90;;;;;;5183164;28;20205;-50
2022/04/12 01:11:58;;;;;;;3.43;2.40;;;5.10;99.90;;;;;;5181821;28;20199;-49
2022/04/12 01:14:28;;;;;;;6.00;2.67;;;5.10;99.90;;;;;;5175997;28;20483;-51
2022/04/12 01:17:06;;;;;;;8.43;3.40;;;5.10;99.90;;;;;;5180042;28;21089;-51
2022/04/12 01:19:36;;;;;;;6.73;2.60;;;5.10;99.90;;;;;;5178442;28;20207;-51
2022/04/12 01:22:12;;;;;;;5.80;2.50;;;5.10;99.90;;;;;;5184798;28;20471;-50
2022/04/12 01:24:43;;;;;;;10.03;3.67;;;5.10;99.90;;;;;;5186213;28;20241;-50
2022/04/12 01:27:13;;;;;;;9.50;2.53;;;5.10;99.90;;;;;;5185423;28;20423;-49
2022/04/12 01:29:44;;;;;;;5.10;2.50;;;5.00;99.90;;;;;;5186605;28;20477;-51
2022/04/12 01:32:14;;;;;;;4.80;2.57;;;5.00;99.90;;;;;;5190098;28;20267;-50
2022/04/12 01:34:45;;;;;;;4.07;2.53;;;5.00;99.90;;;;;;5185151;28;20202;-50
2022/04/12 01:37:15;;;;;;;3.10;2.80;;;5.00;99.90;;;;;;5173630;28;20247;-51
2022/04/12 01:39:46;;;;;;;9.97;2.80;;;5.00;99.90;;;;;;5180832;28;20197;-50
2022/04/12 01:42:16;;;;;;;2.80;2.60;;;5.00;99.90;;;;;;5178973;28;20250;-50
2022/04/12 01:44:47;;;;;;;17.83;2.90;;;5.00;99.90;;;;;;5174128;28;20208;-50
2022/04/12 01:47:18;;;;;;;9.93;3.43;;;5.00;99.90;;;;;;5184998;28;20184;-50
2022/04/12 01:49:49;;;;;;;7.10;3.20;;;5.00;99.90;;;;;;5175099;28;20224;-51
2022/04/12 01:52:19;;;;;;;3.33;2.70;;;5.00;99.90;;;;;;5172282;28;20432;-50
2022/04/12 01:54:50;;;;;;;6.00;2.80;;;5.00;99.90;;;;;;5182720;28;20300;-51
2022/04/12 01:57:21;;;;;;;6.87;3.20;;;5.00;99.90;;;;;;5180033;28;20188;-51
2022/04/12 01:59:51;;;;;;;4.30;3.13;;;4.90;99.90;;;;;;5202093;28;20216;-50
2022/04/12 02:02:22;;;;;;;3.37;3.00;;;5.00;99.90;;;;;;5187015;28;20267;-51
2022/04/12 02:04:52;;;;;;;5.10;2.87;;;5.00;99.90;;;;;;5187071;28;20192;-51
2022/04/12 02:07:23;;;;;;;10.77;2.30;;;4.90;99.90;;;;;;5185193;28;20193;-49
2022/04/12 02:09:53;;;;;;;5.87;2.40;;;4.90;99.90;;;;;;5183192;28;20212;-50
2022/04/12 02:12:24;;;;;;;12.17;2.80;;;4.80;99.90;;;;;;5181864;28;20184;-50
2022/04/12 02:14:54;;;;;;;3.20;2.90;;;4.80;99.90;;;;;;5180314;28;20534;-51
2022/04/12 02:17:25;;;;;;;11.23;3.00;;;4.80;99.90;;;;;;5177203;28;20185;-49
2022/04/12 02:19:56;;;;;;;5.10;2.70;;;4.70;99.90;;;;;;5185688;28;20502;-49
2022/04/12 02:22:26;;;;;;;7.27;2.87;;;4.70;99.90;;;;;;5185981;28;20185;-49
2022/04/12 02:24:57;;;;;;;5.27;2.50;;;4.70;99.90;;;;;;5185243;28;20572;-50
2022/04/12 02:27:27;;;;;;;4.53;2.77;;;4.70;99.90;;;;;;5178186;28;20181;-50
2022/04/12 02:29:58;;;;;;;3.53;3.13;;;4.70;99.90;;;;;;5197145;28;20208;-52
2022/04/12 02:32:29;;;;;;;3.83;2.60;;;4.70;99.90;;;;;;5174535;28;20246;-50
2022/04/12 02:35:00;;;;;;;4.83;2.37;;;4.70;99.90;;;;;;5184848;28;20172;-51
2022/04/12 02:37:31;;;;;;;4.30;3.03;;;4.60;99.90;;;;;;5181279;28;20809;-51
2022/04/12 02:40:03;;;;;;;5.50;2.63;;;4.60;99.90;;;;;;5196224;28;20798;-50
2022/04/12 02:42:33;;;;;;;4.83;3.20;;;4.50;99.90;;;;;;5178646;28;20183;-50
2022/04/12 02:45:04;;;;;;;8.23;3.23;;;4.50;99.90;;;;;;5169376;28;20891;-51
2022/04/12 02:47:35;;;;;;;5.17;2.87;;;4.50;99.90;;;;;;5184897;28;20243;-50
2022/04/12 02:50:06;;;;;;;6.87;3.40;;;4.40;99.90;;;;;;5182166;28;20467;-50
2022/04/12 02:52:37;;;;;;;3.27;3.00;;;4.40;99.90;;;;;;5177228;28;20238;-51
2022/04/12 02:55:07;;;;;;;4.00;2.63;;;4.30;99.90;;;;;;5174374;28;20173;-51
2022/04/12 02:57:38;;;;;;;4.40;2.50;;;4.30;99.90;;;;;;5198114;28;20192;-49
2022/04/12 03:00:09;;;;;;;4.10;2.40;;;4.30;99.90;;;;;;5178992;28;20235;-50
2022/04/12 03:02:39;;;;;;;4.97;2.80;;;4.20;99.90;;;;;;5176225;28;20196;-50
2022/04/12 03:05:10;;;;;;;3.93;3.47;;;4.20;99.90;;;;;;5185838;28;20869;-50
2022/04/12 03:07:41;;;;;;;3.90;3.13;;;4.10;99.90;;;;;;5181833;28;20177;-52
2022/04/12 03:10:11;;;;;;;6.33;3.80;;;4.10;99.90;;;;;;5181137;28;20201;-51
2022/04/12 03:12:42;;;;;;;2.53;2.40;;;4.10;99.90;;;;;;5165096;28;20276;-51
2022/04/12 03:15:12;;;;;;;3.80;2.80;;;4.00;99.90;;;;;;5183645;28;20542;-50
2022/04/12 03:17:43;;;;;;;3.90;3.40;;;4.00;99.90;;;;;;5178707;28;20264;-50
2022/04/12 03:20:13;;;;;;;4.10;2.83;;;4.00;99.90;;;;;;5182277;28;20220;-50
2022/04/12 03:22:44;;;;;;;2.80;2.60;;;4.00;99.90;;;;;;5206750;22;20338;-50
2022/04/12 03:25:14;;;;;;;6.10;3.30;;;4.00;99.90;;;;;;5203945;28;20342;-48
2022/04/12 03:27:45;;;;;;;5.80;3.47;;;3.90;99.90;;;;;;5205930;28;20172;-47
2022/04/12 03:30:15;;;;;;;3.17;2.97;;;3.90;99.90;;;;;;5205139;28;20282;-49
2022/04/12 03:32:46;;;;;;;5.50;3.23;;;3.90;99.90;;;;;;5201797;28;20302;-48
2022/04/12 03:35:17;;;;;;;3.10;2.80;;;3.90;99.90;;;;;;5221745;28;20187;-48
2022/04/12 03:37:48;;;;;;;14.40;4.27;;;3.80;99.90;;;;;;5205751;28;20215;-47
2022/04/12 03:40:18;;;;;;;6.73;3.50;;;3.80;99.90;;;;;;5203982;28;20187;-46
2022/04/12 03:42:49;;;;;;;3.80;3.40;;;3.90;99.90;;;;;;5204430;28;20453;-48
2022/04/12 03:45:19;;;;;;;4.20;3.80;;;3.80;99.90;;;;;;5221240;28;20195;-49
2022/04/12 03:47:50;;;;;;;11.33;4.00;;;3.70;99.90;;;;;;5201922;28;20361;-47
2022/04/12 03:50:21;;;;;;;8.20;4.43;;;3.70;99.90;;;;;;5199231;28;20214;-48
2022/04/12 03:52:52;;;;;;;3.93;3.63;;;3.70;99.90;;;;;;5206054;28;20180;-49
2022/04/12 03:55:34;;;;;;;4.10;3.33;;;3.70;99.90;;;;;;5201137;28;20180;-48
2022/04/12 03:58:06;;;;;;;6.63;3.83;;;3.60;99.90;;;;;;5206296;28;20934;-49
2022/04/12 04:00:36;;;;;;;11.13;3.87;;;3.60;99.90;;;;;;5200961;28;20431;-49
2022/04/12 04:03:07;;;;;;;7.30;3.53;;;3.60;99.90;;;;;;5203672;28;20803;-47
2022/04/12 04:05:37;;;;;;;7.73;4.07;;;3.60;99.90;;;;;;5205580;28;20648;-48
2022/04/12 04:08:08;;;;;;;21.63;4.97;;;3.60;99.90;;;;;;5203377;28;20199;-47
2022/04/12 04:10:38;;;;;;;8.07;4.00;;;3.60;99.90;;;;;;5220124;28;20207;-47
2022/04/12 04:13:09;;;;;;;5.93;4.07;;;3.60;99.90;;;;;;5218440;28;20199;-48
2022/04/12 04:15:40;;;;;;;9.03;4.50;;;3.70;99.90;;;;;;5205361;28;20211;-50
2022/04/12 04:18:14;;;;;;;10.33;4.80;;;3.70;99.90;;;;;;5200722;28;20184;-47
2022/04/12 04:20:44;;;;;;;4.50;4.10;;;3.70;99.90;;;;;;5218364;28;20454;-47
2022/04/12 04:23:15;;;;;;;13.77;4.87;;;3.70;99.90;;;;;;5208052;28;20609;-47
2022/04/12 04:25:45;;;;;;;9.93;4.77;;;3.70;99.90;;;;;;5204912;28;20180;-47
2022/04/12 04:28:21;;;;;;;4.90;4.40;;;3.70;99.90;;;;;;5195103;28;20183;-49
2022/04/12 04:30:51;;;;;;;6.40;4.37;;;3.70;99.90;;;;;;5206055;28;20194;-48
2022/04/12 04:33:22;;;;;;;9.37;4.87;;;3.80;99.90;;;;;;5205567;28;20956;-49
2022/04/12 04:35:53;;;;;;;7.87;4.50;;;3.80;99.90;;;;;;5204400;28;20183;-46
2022/04/12 04:38:23;;;;;;;14.80;4.23;;;3.90;99.90;;;;;;5201747;28;20675;-49
2022/04/12 04:40:54;;;;;;;7.33;4.60;;;3.90;99.90;;;;;;5210398;28;20589;-47
2022/04/12 04:43:24;;;;;;;6.43;4.43;;;3.90;99.90;;;;;;5200764;28;20208;-47
2022/04/12 04:45:55;;;;;;;4.37;3.97;;;4.00;99.90;;;;;;5202411;28;20179;-47
2022/04/12 04:48:25;;;;;;;12.50;5.17;;;4.00;99.90;;;;;;5211021;28;20241;-49
2022/04/12 04:50:56;;;;;;;10.30;5.20;;;4.10;99.90;;;;;;5193644;28;20207;-48
2022/04/12 04:53:26;;;;;;;11.30;4.13;;;4.20;99.90;;;;;;5199692;28;20286;-47
2022/04/12 04:55:57;;;;;;;5.23;4.77;;;4.30;99.90;;;;;;5206714;28;20344;-48
2022/04/12 04:58:27;;;;;;;9.50;4.70;;;4.40;99.90;;;;;;5218573;28;20200;-49
2022/04/12 05:00:58;;;;;;;10.23;4.87;;;4.40;99.90;;;;;;5219973;28;20191;-47
2022/04/12 05:03:29;;;;;;;7.30;5.07;;;4.90;99.90;;;;;;5191602;28;20231;-48
2022/04/12 05:05:59;;;;;;;10.37;4.30;;;5.60;99.90;;;;;;5203758;28;20530;-47
2022/04/12 05:08:30;;;;;;;4.57;4.13;;;6.10;99.90;;;;;;5203655;28;20191;-47
2022/04/12 05:11:00;;;;;;;12.70;4.97;;;6.50;98.20;;;;;;5206216;28;20211;-48
2022/04/12 05:13:31;;;;;;;12.40;5.00;;;6.80;95.30;;;;;;5199768;28;20633;-46
2022/04/12 05:16:01;;;;;;;4.97;4.47;;;7.30;92.10;;;;;;5218375;28;20182;-46
2022/04/12 05:18:32;;;;;;;7.87;4.27;;;7.60;88.20;;;;;;5208626;28;20172;-47
2022/04/12 05:21:03;;;;;;;4.87;4.13;;;8.00;80.80;;;;;;5209172;28;20628;-46
2022/04/12 05:23:33;;;;;;;19.43;5.00;;;8.40;75.90;;;;;;5208517;28;20222;-46
2022/04/12 05:26:04;;;;;;;6.10;3.80;;;8.70;70.10;;;;;;5213304;28;20182;-48
2022/04/12 05:28:34;;;;;;;7.73;4.27;;;9.00;67.20;;;;;;5204399;28;20226;-46
2022/04/12 05:31:05;;;;;;;4.97;4.50;;;9.30;64.30;;;;;;5209090;28;20239;-46
2022/04/12 05:33:35;;;;;;;21.63;5.53;;;9.80;59.80;;;;;;5209627;28;20195;-47
2022/04/12 05:36:06;;;;;;;6.20;4.67;;;10.20;56.20;;;;;;5209439;28;20194;-47
2022/04/12 05:38:37;;;;;;;7.73;4.90;;;10.40;53.90;;;;;;5198264;28;20188;-46
2022/04/12 05:41:07;;;;;;;6.20;4.20;;;10.60;52.10;;;;;;5198904;28;20450;-47
2022/04/12 05:43:38;;;;;;;14.57;5.37;;;11.20;51.10;;;;;;5204532;28;20210;-46
2022/04/12 05:46:08;;;;;;;8.77;5.10;;;11.80;49.00;;;;;;5206785;28;20190;-46
2022/04/12 05:48:42;;;;;;;14.10;4.80;;;12.30;47.30;;;;;;5216003;28;20601;-47
2022/04/12 05:51:12;;;;;;;11.13;5.20;;;13.00;44.90;;;;;;5201420;28;20207;-49
2022/04/12 05:53:43;;;;;;;12.87;4.80;;;13.50;42.90;;;;;;5205675;28;20450;-47
2022/04/12 05:56:13;;;;;;;11.53;4.67;;;13.80;42.10;;;;;;5200885;28;20216;-47
2022/04/12 05:58:44;;;;;;;6.17;3.87;;;14.20;40.60;;;;;;5208193;28;20278;-47
2022/04/12 06:01:15;;;;;;;5.50;4.47;;;14.60;39.40;;;;;;5202005;28;20632;-47
2022/04/12 06:03:45;;;;;;;11.13;4.87;;;14.80;38.20;;;;;;5206661;28;20317;-48
2022/04/12 06:06:16;;;;;;;6.67;4.90;;;15.30;37.70;;;;;;5204673;28;20234;-49
2022/04/12 06:08:47;;;;;;;7.70;4.13;;;15.90;36.60;;;;;;5218956;28;20609;-49
2022/04/12 06:11:17;;;;;;;7.30;4.77;;;16.20;35.10;;;;;;5204811;28;20758;-49
2022/04/12 06:13:48;;;;;;;6.63;4.20;;;15.90;34.60;;;;;;5205452;28;20231;-49
2022/04/12 06:16:18;;;;;;;5.23;3.70;;;15.80;34.80;;;;;;5205236;28;20195;-48
2022/04/12 06:18:48;;;;;;;7.97;4.80;;;15.80;34.60;;;;;;5202466;28;20231;-49
2022/04/12 06:21:19;;;;;;;7.10;4.40;;;15.50;34.60;;;;;;5200555;28;20217;-47
2022/04/12 06:23:50;;;;;;;6.47;4.00;;;15.50;34.80;;;;;;5202010;28;20676;-48
2022/04/12 06:26:20;;;;;;;8.90;4.60;;;15.50;35.20;;;;;;5200660;28;20254;-47
2022/04/12 06:28:51;;;;;;;5.20;4.07;;;16.00;35.00;;;;;;5198465;28;20187;-47
2022/04/12 06:31:21;;;;;;;7.87;5.10;;;16.60;33.20;;;;;;5204135;28;20671;-48
2022/04/12 06:33:52;;;;;;;8.17;3.90;;;16.80;32.80;;;;;;5198569;28;20290;-48
2022/04/12 06:36:22;;;;;;;5.60;4.13;;;17.30;32.90;;;;;;5200998;28;20183;-47
2022/04/12 06:38:54;;;;;;;6.30;4.33;;;17.80;31.20;;;;;;5200985;28;20230;-46
2022/04/12 06:41:25;;;;;;;14.03;3.73;;;17.80;30.90;;;;;;5205592;28;20192;-50
2022/04/12 06:43:55;;;;;;;8.97;4.03;;;18.10;30.00;;;;;;5205982;28;20988;-46
2022/04/12 06:46:26;;;;;;;13.03;4.40;;;18.50;30.10;;;;;;5222954;28;20684;-47
2022/04/12 06:48:56;;;;;;;8.57;3.63;;;19.40;29.40;;;;;;5207784;28;20190;-48
2022/04/12 06:51:27;;;;;;;11.00;5.10;;;19.50;28.90;;;;;;5202060;28;20210;-48
2022/04/12 06:53:57;;;;;;;5.00;3.73;;;19.70;28.30;;;;;;5200298;28;20207;-50
2022/04/12 06:56:28;;;;;;;12.10;4.60;;;19.40;28.30;;;;;;5202309;28;20299;-48
2022/04/12 06:58:59;;;;;;;7.67;4.60;;;19.20;28.50;;;;;;5200206;28;20184;-50
2022/04/12 07:01:29;;;;;;;4.20;3.80;;;18.90;29.00;;;;;;5201598;28;20500;-49
2022/04/12 07:04:00;;;;;;;6.37;4.63;;;18.80;28.70;;;;;;5216481;28;20237;-50
2022/04/12 07:06:30;;;;;;;5.60;3.10;;;18.90;28.90;;;;;;5207565;28;20636;-51
2022/04/12 07:09:01;;;;;;;13.10;3.03;;;19.70;28.50;;;;;;5210191;28;20183;-48
2022/04/12 07:11:32;;;;;;;4.33;3.93;;;19.80;27.70;;;;;;5199698;28;20261;-50
2022/04/12 07:14:03;;;;;;;9.77;3.80;;;20.60;27.60;;;;;;5201300;28;20454;-48
2022/04/12 07:16:33;;;;;;;7.37;4.20;;;20.50;27.10;;;;;;5206517;28;20187;-51
2022/04/12 07:19:04;;;;;;;7.80;4.20;;;21.10;27.20;;;;;;5202429;28;20556;-49
2022/04/12 07:21:34;;;;;;;7.80;3.70;;;21.30;26.20;;;;;;5201990;28;20585;-49
2022/04/12 07:24:06;;;;;;;10.80;4.40;;;21.10;26.50;;;;;;5201388;28;20218;-51
2022/04/12 07:26:36;;;;;;;8.50;4.20;;;21.30;26.30;;;;;;5207716;28;20180;-50
2022/04/12 07:29:07;;;;;;;5.57;3.90;;;21.80;26.20;;;;;;5186532;28;20513;-49
2022/04/12 07:31:38;;;;;;;10.23;3.77;;;22.00;25.40;;;;;;5199644;28;20211;-51
2022/04/12 07:34:09;;;;;;;6.10;3.43;;;22.00;25.60;;;;;;5218107;28;20207;-50
2022/04/12 07:36:47;;;;;;;3.73;3.40;;;21.80;25.50;;;;;;5204450;28;20219;-49
2022/04/12 07:39:17;;;;;;;5.30;4.27;;;21.90;25.80;;;;;;5218275;28;20441;-50
2022/04/12 07:41:48;;;;;;;5.93;4.10;;;22.40;25.20;;;;;;5201328;28;20442;-51
2022/04/12 07:44:20;;;;;;;4.67;4.37;;;21.80;25.00;;;;;;5209683;28;20203;-48
2022/04/12 07:46:51;;;;;;;4.57;4.13;;;21.10;25.80;;;;;;5199410;28;20427;-48
2022/04/12 07:49:21;;;;;;;5.07;4.10;;;20.30;26.30;;;;;;5209745;28;20449;-50
2022/04/12 07:51:52;;;;;;;9.37;3.80;;;20.10;26.90;;;;;;5192915;28;20262;-49
2022/04/12 07:54:22;;;;;;;6.63;4.23;;;20.40;27.00;;;;;;5214708;28;20203;-49
2022/04/12 07:56:53;;;;;;;10.23;3.73;;;20.70;26.70;;;;;;5204308;28;20694;-49
2022/04/12 07:59:24;;;;;;;10.37;4.63;;;20.70;26.40;;;;;;5204280;28;20182;-48
2022/04/12 08:01:54;;;;;;;7.50;4.57;;;20.70;26.00;;;;;;5204070;28;20199;-49
2022/04/12 08:04:25;;;;;;;8.77;4.20;;;21.20;26.30;;;;;;5203391;28;20226;-48
2022/04/12 08:06:55;;;;;;;3.10;2.90;;;21.80;25.20;;;;;;5203546;28;20183;-49
2022/04/12 08:09:26;;;;;;;6.80;2.97;;;21.50;25.10;;;;;;5203107;28;20199;-48
2022/04/12 08:11:56;;;;;;;9.40;4.13;;;21.10;25.40;;;;;;5201280;28;20236;-48
2022/04/12 08:14:27;;;;;;;7.43;3.50;;;21.10;25.70;;;;;;5204471;28;20315;-49
2022/04/12 08:16:57;;;;;;;7.50;3.57;;;20.70;26.20;;;;;;5204589;28;20191;-48
2022/04/12 08:19:28;;;;;;;7.03;3.40;;;20.00;26.30;;;;;;5204094;28;20258;-50
2022/04/12 08:22:01;;;;;;;6.63;3.70;;;19.10;27.20;;;;;;5211871;28;20186;-48
2022/04/12 08:24:32;;;;;;;5.03;3.97;;;18.40;27.70;;;;;;5200901;28;20219;-50
2022/04/12 08:27:04;;;;;;;7.93;3.13;;;17.30;28.80;;;;;;5201214;28;20848;-49
2022/04/12 08:29:34;;;;;;;9.40;3.50;;;16.80;29.70;;;;;;5202396;28;20291;-50
2022/04/12 08:32:05;;;;;;;4.17;3.50;;;16.40;30.00;;;;;;5220804;28;20456;-50
2022/04/12 08:34:36;;;;;;;6.87;3.20;;;16.00;30.10;;;;;;5199831;28;20216;-50
2022/04/12 08:37:07;;;;;;;11.60;3.67;;;15.70;30.40;;;;;;5199923;28;20492;-50
2022/04/12 08:39:38;;;;;;;10.30;3.33;;;15.50;30.90;;;;;;5185142;28;20723;-50
2022/04/12 08:42:09;;;;;;;7.30;3.43;;;15.40;31.40;;;;;;5202838;28;20912;-51
2022/04/12 08:44:45;;;;;;;6.17;3.60;;;15.40;31.10;;;;;;5198166;28;20825;-50
2022/04/12 08:47:22;;;;;;;8.13;3.00;;;15.20;31.40;;;;;;5207271;28;20278;-49
2022/04/12 08:49:53;;;;;;;6.10;3.90;;;15.20;31.40;;;;;;5204954;28;20462;-49
2022/04/12 08:52:24;;;;;;;3.40;3.10;;;15.20;31.30;;;;;;5207454;28;20951;-51
2022/04/12 08:54:55;;;;;;;5.77;3.40;;;15.00;31.30;;;;;;5202620;28;20590;-48
2022/04/12 08:57:25;;;;;;;7.90;3.60;;;14.30;31.40;;;;;;5220388;28;20180;-51
2022/04/12 08:59:56;;;;;;;7.93;4.53;;;13.80;32.00;;;;;;5203229;28;20188;-50
2022/04/12 09:02:26;;;;;;;4.23;3.83;;;13.60;32.50;;;;;;5204397;28;20221;-50
2022/04/12 09:04:57;;;;;;;3.60;3.30;;;13.60;32.70;;;;;;5206397;28;20617;-49
2022/04/12 09:07:28;;;;;;;3.60;3.40;;;13.70;32.30;;;;;;5214850;28;20187;-49
2022/04/12 09:10:06;;;;;;;5.30;4.10;;;13.70;32.50;;;;;;5206751;28;20210;-50
2022/04/12 09:12:37;;;;;;;4.00;3.57;;;13.90;32.70;;;;;;5206480;28;20179;-51
2022/04/12 09:15:12;;;;;;;4.07;3.40;;;13.80;32.00;;;;;;5207369;28;20438;-49
2022/04/12 09:17:44;;;;;;;8.00;3.50;;;13.70;32.10;;;;;;5203239;28;20198;-49
2022/04/12 09:20:19;;;;;;;5.13;3.90;;;13.80;31.70;;;;;;5206917;28;20476;-49
2022/04/12 09:22:50;;;;;;;7.00;4.33;;;13.90;31.90;;;;;;5208910;28;20452;-51
2022/04/12 09:25:21;;;;;;;5.80;3.33;;;13.90;31.00;;;;;;5224562;23;20497;-50
2022/04/12 09:27:51;;;;;;;8.10;4.50;;;13.90;31.60;;;;;;5198885;28;21037;-50
2022/04/12 09:30:22;;;;;;;6.57;4.70;;;13.90;31.40;;;;;;5199570;28;20660;-50
2022/04/12 09:32:53;;;;;;;8.80;4.20;;;13.80;31.80;;;;;;5204354;28;20208;-49
2022/04/12 09:35:23;;;;;;;6.97;3.87;;;13.90;32.10;;;;;;5209597;28;20187;-50
2022/04/12 09:37:54;;;;;;;4.47;4.07;;;14.10;32.50;;;;;;5206620;28;20219;-49
2022/04/12 09:40:25;;;;;;;5.53;4.40;;;13.80;32.50;;;;;;5219017;28;20279;-49
2022/04/12 09:42:59;;;;;;;6.67;4.47;;;13.80;33.00;;;;;;5203463;28;20184;-51
2022/04/12 09:45:31;;;;;;;9.33;3.53;;;13.90;32.70;;;;;;5197571;28;20464;-50
2022/04/12 09:48:05;;;;;;;4.10;3.40;;;13.80;32.80;;;;;;5195750;28;20492;-50
2022/04/12 09:50:35;;;;;;;12.03;4.00;;;13.70;33.10;;;;;;5198635;28;21533;-49
2022/04/12 09:53:06;;;;;;;6.97;3.63;;;13.70;33.50;;;;;;5196127;28;20430;-51
2022/04/12 09:55:41;;;;;;;4.23;3.60;;;13.70;33.70;;;;;;5201203;28;20179;-50
2022/04/12 09:58:15;;;;;;;5.67;4.20;;;13.80;33.70;;;;;;5207842;28;20955;-49
2022/04/12 10:00:49;;;;;;;11.77;3.60;;;13.60;33.10;;;;;;5199557;28;20430;-50
2022/04/12 10:03:20;;;;;;;5.17;4.27;;;13.80;33.40;;;;;;5197754;28;20926;-48
2022/04/12 10:05:51;;;;;;;10.30;4.00;;;13.80;33.50;;;;;;5204373;28;20426;-49
2022/04/12 10:08:23;;;;;;;3.97;3.67;;;14.10;33.30;;;;;;5201285;28;20538;-50
2022/04/12 10:10:54;;;;;;;4.53;4.07;;;14.00;32.30;;;;;;5195888;28;20470;-49
2022/04/12 10:13:26;;;;;;;6.77;4.40;;;13.90;32.30;;;;;;5203088;28;20469;-49
2022/04/12 10:15:57;;;;;;;7.20;4.67;;;14.00;32.60;;;;;;5199430;28;20177;-49
2022/04/12 10:18:28;;;;;;;5.00;4.50;;;14.00;32.40;;;;;;5200920;28;20444;-49
2022/04/12 10:20:59;;;;;;;6.97;4.83;;;14.10;32.40;;;;;;5204991;28;20873;-51
2022/04/12 10:23:32;;;;;;;5.30;4.10;;;14.20;32.00;;;;;;5203528;28;20476;-50
2022/04/12 10:26:03;;;;;;;4.17;3.83;;;14.30;31.70;;;;;;5198376;28;20435;-50
2022/04/12 10:28:35;;;;;;;6.83;4.00;;;14.10;31.50;;;;;;5199891;28;20556;-50
2022/04/12 10:31:14;;;;;;;6.70;3.93;;;14.10;31.90;;;;;;5191455;28;20470;-50
2022/04/12 10:34:11;;;;;;;8.60;4.30;;;14.60;32.30;;;;;;5203328;28;20819;-50
2022/04/12 10:37:03;;;;;;;7.27;4.43;;;14.70;31.60;;;;;;5191778;28;20429;-50
2022/04/12 10:39:46;;;;;;;8.67;6.60;;;14.80;31.60;;;;;;5201086;28;20434;-48
2022/04/12 10:42:36;;;;;;;7.53;5.07;;;14.70;31.30;;;;;;5201035;28;20478;-50
2022/04/12 10:45:07;;;;;;;4.97;4.47;;;14.70;31.90;;;;;;5209783;28;20489;-50
2022/04/12 10:47:43;;;;;;;6.17;3.97;;;14.80;31.10;;;;;;5198668;28;20430;-49
2022/04/12 10:50:14;;;;;;;15.90;6.17;;;14.90;31.20;;;;;;5202478;28;20223;-50
2022/04/12 10:52:48;;;;;;;4.37;4.07;;;14.90;31.40;;;;;;5213426;28;20442;-51
2022/04/12 10:55:25;;;;;;;5.90;4.37;;;14.80;31.10;;;;;;5201289;28;20504;-49
2022/04/12 10:58:29;;;;;;;4.43;3.97;;;14.70;31.60;;;;;;5197209;28;20450;-50
2022/04/12 11:01:00;;;;;;;7.60;4.60;;;14.80;30.80;;;;;;5217027;28;20456;-50
2022/04/12 11:03:45;;;;;;;6.93;5.00;;;15.00;31.70;;;;;;5203449;28;20458;-51
2022/04/12 11:06:24;;;;;;;4.83;4.33;;;15.00;30.60;;;;;;5202041;28;20882;-51
2022/04/12 11:09:17;;;;;;;8.67;5.40;;;15.10;30.70;;;;;;5202480;28;20434;-50
2022/04/12 11:11:52;;;;;;;9.03;4.53;;;15.30;31.10;;;;;;5193259;28;20978;-51
2022/04/12 11:14:28;;;;;;;5.43;4.40;;;15.30;30.50;;;;;;5213026;28;20578;-51
2022/04/12 11:17:14;;;;;;;8.53;5.10;;;15.20;30.80;;;;;;5195774;28;20453;-51
2022/04/12 11:19:49;;;;;;;5.33;4.53;;;15.50;30.90;;;;;;5197976;28;20515;-52
2022/04/12 11:22:22;;;;;;;6.90;4.90;;;15.70;30.80;;;;;;5201116;28;20449;-51
2022/04/12 11:25:12;;;;;;;4.93;4.53;;;15.60;30.80;;;;;;5194129;28;20474;-50
2022/04/12 11:27:43;;;;;;;5.90;5.10;;;15.30;31.40;;;;;;5200995;28;20843;-51
2022/04/12 11:30:14;;;;;;;8.40;5.53;;;15.10;31.80;;;;;;5201211;28;20488;-50
2022/04/12 11:32:44;;;;;;;14.97;5.20;;;15.10;32.80;;;;;;5196374;28;20698;-49
2022/04/12 11:35:18;;;;;;;5.33;4.87;;;15.10;32.20;;;;;;5200519;28;20272;-49
2022/04/12 11:37:50;;;;;;;5.60;4.10;;;15.20;32.60;;;;;;5197698;28;20243;-50
2022/04/12 11:40:25;;;;;;;7.13;4.80;;;15.30;32.90;;;;;;5198705;28;20445;-50
2022/04/12 11:42:56;;;;;;;9.27;4.60;;;15.30;32.90;;;;;;5202701;28;20889;-51
2022/04/12 11:45:31;;;;;;;7.50;4.80;;;15.30;32.60;;;;;;5203412;28;20476;-51
2022/04/12 11:48:05;;;;;;;5.63;4.60;;;15.30;31.60;;;;;;5194290;28;20209;-49
2022/04/12 11:50:36;;;;;;;8.70;5.17;;;15.20;31.50;;;;;;5207192;28;20461;-50
2022/04/12 11:53:08;;;;;;;4.20;3.80;;;15.10;32.00;;;;;;5200008;28;20441;-51
2022/04/12 11:55:39;;;;;;;4.27;3.97;;;15.40;31.20;;;;;;5200359;28;20175;-51
2022/04/12 11:58:10;;;;;;;10.10;4.20;;;15.70;30.90;;;;;;5198899;28;20500;-50
2022/04/12 12:00:41;;;;;;;5.13;3.90;;;16.00;30.80;;;;;;5200593;28;20237;-51
2022/04/12 12:03:16;;;;;;;3.93;3.63;;;16.00;30.80;;;;;;5203964;28;20490;-50
2022/04/12 12:05:47;;;;;;;12.53;4.43;;;16.30;30.10;;;;;;5203345;28;20639;-49
2022/04/12 12:08:20;;;;;;;4.23;3.37;;;16.30;29.70;;;;;;5201716;28;20836;-51
2022/04/12 12:10:52;;;;;;;21.43;7.00;;;16.30;29.60;;;;;;5201044;28;20211;-50
2022/04/12 12:13:24;;;;;;;7.00;4.17;;;16.30;29.60;;;;;;5204584;28;20446;-51
2022/04/12 12:15:55;;;;;;;5.30;4.40;;;16.20;29.50;;;;;;5200830;28;20786;-51
2022/04/12 12:18:25;;;;;;;4.63;4.20;;;16.30;29.70;;;;;;5203151;28;20445;-50
2022/04/12 12:20:56;;;;;;;4.47;4.00;;;16.30;29.20;;;;;;5205079;28;20182;-52
2022/04/12 12:23:26;;;;;;;4.10;3.80;;;16.10;29.10;;;;;;5200747;28;20668;-51
2022/04/12 12:25:57;;;;;;;6.33;3.87;;;16.00;28.70;;;;;;5201977;28;20191;-49
2022/04/12 12:28:27;;;;;;;3.77;3.47;;;15.70;28.30;;;;;;5203028;28;20291;-50
2022/04/12 12:31:03;;;;;;;5.40;3.70;;;15.70;29.00;;;;;;5195955;28;20207;-49
2022/04/12 12:33:43;;;;;;;6.20;4.27;;;15.70;29.00;;;;;;5202285;28;20222;-51
2022/04/12 12:36:17;;;;;;;5.00;3.30;;;15.70;29.10;;;;;;5203040;28;20453;-51
2022/04/12 12:38:49;;;;;;;6.10;4.43;;;15.80;29.70;;;;;;5203085;28;20439;-50
2022/04/12 12:41:30;;;;;;;5.30;4.43;;;15.70;29.70;;;;;;5202375;28;20426;-50
2022/04/12 12:44:02;;;;;;;6.70;4.43;;;15.90;29.90;;;;;;5203326;28;20434;-48
2022/04/12 12:46:34;;;;;;;7.83;4.60;;;15.90;29.50;;;;;;5200103;28;20772;-51
2022/04/12 12:49:13;;;;;;;5.37;3.80;;;16.00;29.60;;;;;;5217534;28;20546;-51
2022/04/12 12:51:44;;;;;;;6.10;4.20;;;15.90;28.30;;;;;;5203616;28;20843;-51
2022/04/12 12:54:17;;;;;;;8.33;3.33;;;16.00;28.80;;;;;;5196915;28;20767;-51
2022/04/12 12:56:48;;;;;;;4.43;4.03;;;15.90;28.50;;;;;;5189983;28;20458;-49
2022/04/12 12:59:33;;;;;;;10.73;4.07;;;15.70;28.70;;;;;;5207952;28;20434;-51
2022/04/12 13:02:12;;;;;;;3.87;3.50;;;15.90;29.30;;;;;;5202591;28;20454;-50
2022/04/12 13:04:54;;;;;;;6.53;3.70;;;16.10;29.60;;;;;;5203947;28;20486;-49
2022/04/12 13:07:34;;;;;;;5.33;3.73;;;16.20;28.20;;;;;;5200727;28;20456;-49
2022/04/12 13:10:17;;;;;;;3.30;3.10;;;16.00;28.20;;;;;;5203910;28;20533;-50
2022/04/12 13:12:47;;;;;;;5.00;3.90;;;15.90;27.80;;;;;;5188203;28;20446;-51
2022/04/12 13:15:18;;;;;;;6.40;3.63;;;15.90;27.90;;;;;;5200648;28;20451;-50